createdAt,value
2023-02-24T00:02:01.419Z,9.78
2023-02-24T00:04:31.347Z,9.74
2023-02-24T00:06:59.999Z,9.73
2023-02-24T00:09:31.495Z,9.73
2023-02-24T00:12:02.527Z,9.73
2023-02-24T00:14:33.198Z,9.73
2023-02-24T00:17:03.119Z,9.73
2023-02-24T00:19:33.865Z,9.72
2023-02-24T00:22:03.397Z,9.70
2023-02-24T00:24:32.525Z,9.69
2023-02-24T00:27:07.533Z,9.67
2023-02-24T00:29:37.696Z,9.68
2023-02-24T00:32:12.310Z,9.68
2023-02-24T00:34:41.944Z,9.69
2023-02-24T00:37:10.513Z,9.70
2023-02-24T00:39:41.502Z,9.69
2023-02-24T00:42:12.543Z,9.73
2023-02-24T00:44:44.939Z,9.72
2023-02-24T00:47:17.244Z,9.72
2023-02-24T00:49:45.950Z,9.72
2023-02-24T00:52:17.195Z,9.70
2023-02-24T00:54:47.078Z,9.66
2023-02-24T00:57:17.471Z,9.59
2023-02-24T00:59:47.457Z,9.54
2023-02-24T01:02:17.368Z,9.50
2023-02-24T01:04:46.420Z,9.47
2023-02-24T01:07:16.105Z,9.44
2023-02-24T01:09:45.018Z,9.45
2023-02-24T01:12:32.320Z,9.45
2023-02-24T01:15:02.963Z,9.45
2023-02-24T01:17:32.720Z,9.44
2023-02-24T01:20:15.709Z,9.40
2023-02-24T01:22:44.772Z,9.36
2023-02-24T01:25:13.610Z,9.31
2023-02-24T01:27:43.273Z,9.25
2023-02-24T01:30:15.743Z,9.22
2023-02-24T01:32:47.201Z,9.17
2023-02-24T01:35:16.664Z,9.13
2023-02-24T01:37:45.483Z,9.12
2023-02-24T01:40:21.465Z,9.09
2023-02-24T01:42:50.992Z,9.07
2023-02-24T01:45:28.603Z,9.05
2023-02-24T01:48:03.266Z,9.02
2023-02-24T01:50:33.575Z,9.00
2023-02-24T01:53:06.535Z,8.98
2023-02-24T01:55:38.240Z,8.95
2023-02-24T01:58:15.493Z,8.94
2023-02-24T02:00:47.039Z,8.92
2023-02-24T02:03:27.629Z,8.88
2023-02-24T02:06:01.745Z,8.87
2023-02-24T02:08:30.965Z,8.86
2023-02-24T02:11:06.553Z,8.86
2023-02-24T02:13:36.683Z,8.85
2023-02-24T02:16:27.963Z,8.85
2023-02-24T02:19:20.339Z,8.85
2023-02-24T02:22:23.868Z,8.85
2023-02-24T02:24:58.288Z,8.86
2023-02-24T02:28:31.499Z,8.85
2023-02-24T02:31:51.746Z,8.85
2023-02-24T02:34:34.968Z,8.84
2023-02-24T02:37:11.954Z,8.85
2023-02-24T02:39:52.543Z,8.84
2023-02-24T02:42:30.087Z,8.83
2023-02-24T02:45:08.457Z,8.84
2023-02-24T02:47:43.241Z,8.84
2023-02-24T02:50:19.710Z,8.83
2023-02-24T02:52:54.945Z,8.83
2023-02-24T02:55:34.800Z,8.83
2023-02-24T02:58:09.078Z,8.83
2023-02-24T03:00:49.983Z,8.80
2023-02-24T03:03:20.517Z,8.79
2023-02-24T03:05:57.329Z,8.78
2023-02-24T03:08:34.280Z,8.79
2023-02-24T03:11:05.587Z,8.79
2023-02-24T03:13:38.778Z,8.78
2023-02-24T03:16:11.485Z,8.78
2023-02-24T03:18:45.164Z,8.78
2023-02-24T03:21:25.403Z,8.79
2023-02-24T03:23:54.614Z,8.80
2023-02-24T03:26:30.766Z,8.81
2023-02-24T03:29:07.807Z,8.80
2023-02-24T03:31:45.984Z,8.78
2023-02-24T03:34:21.029Z,8.77
2023-02-24T03:36:51.054Z,8.78
2023-02-24T03:39:19.698Z,8.77
2023-02-24T03:42:08.110Z,8.79
2023-02-24T03:44:37.726Z,8.78
2023-02-24T03:47:06.422Z,8.79
2023-02-24T03:49:37.613Z,8.80
2023-02-24T03:52:21.711Z,8.80
2023-02-24T03:55:13.830Z,8.81
2023-02-24T03:57:59.772Z,8.81
2023-02-24T04:00:41.333Z,8.82
2023-02-24T04:03:26.456Z,8.81
2023-02-24T04:06:14.113Z,8.81
2023-02-24T04:08:52.104Z,8.80
2023-02-24T04:11:29.022Z,8.78
2023-02-24T04:14:06.390Z,8.76
2023-02-24T04:16:41.111Z,8.76
2023-02-24T04:19:13.982Z,8.73
2023-02-24T04:21:48.390Z,8.72
2023-02-24T04:24:28.926Z,8.71
2023-02-24T04:27:00.690Z,8.68
2023-02-24T04:29:36.667Z,8.67
2023-02-24T04:32:11.020Z,8.66
2023-02-24T04:34:41.029Z,8.67
2023-02-24T04:37:10.143Z,8.67
2023-02-24T04:39:39.892Z,8.65
2023-02-24T04:42:19.930Z,8.64
2023-02-24T04:44:48.438Z,8.64
2023-02-24T04:47:17.093Z,8.63
2023-02-24T04:49:45.656Z,8.61
2023-02-24T04:52:15.277Z,8.61
2023-02-24T04:54:45.129Z,8.60
2023-02-24T04:57:14.348Z,8.60
2023-02-24T04:59:43.014Z,8.59
2023-02-24T05:02:13.233Z,8.56
2023-02-24T05:04:41.788Z,8.54
2023-02-24T05:07:12.712Z,8.52
2023-02-24T05:09:41.305Z,8.51
2023-02-24T05:12:10.843Z,8.50
2023-02-24T05:14:39.597Z,8.48
2023-02-24T05:17:08.385Z,8.46
2023-02-24T05:19:54.244Z,8.45
2023-02-24T05:22:22.848Z,8.44
2023-02-24T05:24:51.359Z,8.44
2023-02-24T05:27:22.267Z,8.44
2023-02-24T05:29:50.859Z,8.43
2023-02-24T05:32:19.432Z,8.43
2023-02-24T05:34:48.138Z,8.42
2023-02-24T05:37:16.797Z,8.43
2023-02-24T05:39:45.444Z,8.43
2023-02-24T05:42:13.974Z,8.42
2023-02-24T05:44:43.553Z,8.41
2023-02-24T05:47:12.111Z,8.41
2023-02-24T05:49:40.962Z,8.41
2023-02-24T05:52:11.222Z,8.41
2023-02-24T05:54:41.746Z,8.42
2023-02-24T05:57:12.780Z,8.42
2023-02-24T05:59:43.362Z,8.41
2023-02-24T06:02:13.707Z,8.41
2023-02-24T06:04:50.793Z,8.39
2023-02-24T06:07:22.796Z,8.39
2023-02-24T06:09:53.866Z,8.38
2023-02-24T06:12:24.644Z,8.39
2023-02-24T06:14:54.530Z,8.38
2023-02-24T06:17:24.272Z,8.39
2023-02-24T06:19:54.037Z,8.39
2023-02-24T06:22:24.474Z,8.39
2023-02-24T06:24:54.265Z,8.38
2023-02-24T06:27:25.226Z,8.38
2023-02-24T06:29:57.576Z,8.37
2023-02-24T06:32:27.997Z,8.38
2023-02-24T06:34:57.500Z,8.38
2023-02-24T06:37:26.142Z,8.39
2023-02-24T06:39:54.761Z,8.38
2023-02-24T06:42:23.486Z,8.36
2023-02-24T06:44:52.008Z,8.39
2023-02-24T06:47:22.663Z,8.39
2023-02-24T06:49:51.425Z,8.40
2023-02-24T06:52:19.903Z,8.41
2023-02-24T06:54:52.324Z,8.43
2023-02-24T06:57:20.871Z,8.42
2023-02-24T06:59:50.832Z,8.44
2023-02-24T07:02:20.783Z,8.45
2023-02-24T07:04:49.307Z,8.48
2023-02-24T07:07:18.854Z,8.50
2023-02-24T07:09:47.559Z,8.52
2023-02-24T07:12:20.840Z,8.56
2023-02-24T07:14:50.662Z,8.59
2023-02-24T07:17:19.905Z,8.61
2023-02-24T07:19:49.452Z,8.65
2023-02-24T07:22:25.005Z,8.69
2023-02-24T07:25:00.280Z,8.73
2023-02-24T07:27:28.871Z,8.75
2023-02-24T07:29:59.149Z,8.78
2023-02-24T07:32:27.764Z,8.80
2023-02-24T07:34:57.355Z,8.84
2023-02-24T07:37:25.870Z,8.85
2023-02-24T07:39:54.340Z,8.88
2023-02-24T07:42:22.879Z,8.92
2023-02-24T07:44:56.103Z,8.95
2023-02-24T07:47:25.143Z,9.00
2023-02-24T07:49:55.303Z,9.03
2023-02-24T07:52:24.899Z,9.07
2023-02-24T07:54:55.066Z,9.10
2023-02-24T07:57:25.103Z,9.12
2023-02-24T07:59:54.068Z,9.14
2023-02-24T08:02:23.765Z,9.18
2023-02-24T08:04:52.338Z,9.22
2023-02-24T08:07:24.600Z,9.26
2023-02-24T08:10:12.303Z,9.31
2023-02-24T08:12:43.604Z,9.35
2023-02-24T08:15:23.936Z,9.39
2023-02-24T08:17:59.796Z,9.43
2023-02-24T08:20:35.971Z,9.50
2023-02-24T08:23:08.578Z,9.57
2023-02-24T08:25:38.443Z,9.65
2023-02-24T08:28:11.822Z,9.73
2023-02-24T08:30:45.397Z,9.85
2023-02-24T08:33:20.623Z,9.96
2023-02-24T08:36:00.903Z,10.09
2023-02-24T08:38:39.796Z,10.24
2023-02-24T08:41:17.657Z,10.35
2023-02-24T08:43:47.405Z,10.51
2023-02-24T08:46:21.219Z,10.74
2023-02-24T08:48:55.437Z,11.01
2023-02-24T08:51:29.650Z,11.21
2023-02-24T08:54:00.927Z,11.33
2023-02-24T08:56:34.590Z,11.40
2023-02-24T08:59:06.318Z,11.47
2023-02-24T09:01:37.317Z,11.48
2023-02-24T09:04:09.524Z,11.48
2023-02-24T09:06:44.854Z,11.50
2023-02-24T09:09:22.395Z,11.59
2023-02-24T09:11:56.003Z,11.78
2023-02-24T09:14:28.819Z,11.90
2023-02-24T09:17:07.142Z,11.94
2023-02-24T09:20:02.234Z,11.95
2023-02-24T09:22:32.941Z,11.99
2023-02-24T09:25:21.593Z,11.98
2023-02-24T09:27:55.621Z,11.97
2023-02-24T09:30:38.570Z,11.95
2023-02-24T09:33:20.858Z,11.99
2023-02-24T09:36:09.626Z,11.96
2023-02-24T09:39:09.730Z,11.98
2023-02-24T09:41:56.882Z,11.96
2023-02-24T09:44:35.181Z,11.94
2023-02-24T09:47:13.515Z,11.94
2023-02-24T09:49:56.025Z,11.96
2023-02-24T09:52:39.681Z,11.96
2023-02-24T09:55:25.967Z,11.96
2023-02-24T09:58:20.111Z,11.97
2023-02-24T10:01:20.835Z,11.99
2023-02-24T10:04:18.289Z,12.01
2023-02-24T10:06:51.534Z,12.04
2023-02-24T10:09:26.933Z,12.07
2023-02-24T10:12:04.477Z,12.10
2023-02-24T10:14:44.580Z,12.16
2023-02-24T10:17:24.167Z,12.37
2023-02-24T10:20:00.493Z,12.62
2023-02-24T10:22:50.354Z,12.79
2023-02-24T10:25:39.359Z,12.92
2023-02-24T10:28:24.555Z,12.98
2023-02-24T10:31:10.181Z,12.98
2023-02-24T10:33:46.003Z,12.96
2023-02-24T10:36:22.202Z,13.09
2023-02-24T10:38:55.906Z,13.21
2023-02-24T10:41:28.703Z,13.30
2023-02-24T10:43:58.782Z,13.38
2023-02-24T10:46:41.042Z,13.48
2023-02-24T10:49:16.698Z,13.56
2023-02-24T10:51:54.219Z,13.72
2023-02-24T10:54:44.802Z,13.91
2023-02-24T10:57:23.145Z,14.05
2023-02-24T11:00:15.371Z,14.08
2023-02-24T11:03:07.049Z,14.03
2023-02-24T11:06:05.887Z,13.98
2023-02-24T11:08:54.257Z,13.87
2023-02-24T11:11:30.749Z,13.73
2023-02-24T11:14:20.428Z,13.52
2023-02-24T11:17:08.583Z,13.37
2023-02-24T11:19:45.132Z,13.34
2023-02-24T11:22:21.290Z,13.41
2023-02-24T11:24:51.878Z,13.52
2023-02-24T11:27:24.391Z,13.57
2023-02-24T11:30:16.916Z,13.57
2023-02-24T11:33:03.870Z,13.60
2023-02-24T11:35:40.741Z,13.62
2023-02-24T11:38:27.874Z,13.62
2023-02-24T11:41:06.459Z,13.57
2023-02-24T11:43:41.307Z,13.50
2023-02-24T11:46:13.513Z,13.48
2023-02-24T11:48:48.518Z,13.43
2023-02-24T11:51:23.384Z,13.47
2023-02-24T11:53:57.642Z,13.52
2023-02-24T11:56:31.887Z,13.61
2023-02-24T11:59:05.078Z,13.58
2023-02-24T12:01:40.381Z,13.47
2023-02-24T12:04:20.060Z,13.42
2023-02-24T12:06:58.474Z,13.33
2023-02-24T12:09:41.623Z,13.23
2023-02-24T12:12:14.915Z,13.23
2023-02-24T12:14:49.601Z,13.27
2023-02-24T12:17:25.333Z,13.37
2023-02-24T12:20:01.590Z,13.46
2023-02-24T12:22:42.347Z,13.48
2023-02-24T12:25:16.697Z,13.46
2023-02-24T12:28:01.882Z,13.57
2023-02-24T12:30:49.728Z,13.73
2023-02-24T12:33:34.231Z,13.90
2023-02-24T12:36:13.278Z,14.02
2023-02-24T12:38:58.635Z,14.17
2023-02-24T12:41:41.710Z,14.28
2023-02-24T12:44:27.044Z,14.38
2023-02-24T12:47:04.847Z,14.37
2023-02-24T12:49:59.194Z,14.28
2023-02-24T12:52:35.678Z,14.18
2023-02-24T12:55:14.743Z,14.01
2023-02-24T12:57:56.603Z,14.08
2023-02-24T13:00:37.594Z,14.26
2023-02-24T13:03:22.926Z,14.36
2023-02-24T13:06:02.673Z,14.57
2023-02-24T13:08:44.211Z,14.82
2023-02-24T13:11:22.088Z,14.90
2023-02-24T13:14:01.374Z,14.81
2023-02-24T13:16:33.009Z,14.72
2023-02-24T13:19:22.212Z,14.60
2023-02-24T13:22:02.523Z,14.48
2023-02-24T13:24:31.373Z,14.28
2023-02-24T13:27:22.424Z,14.12
2023-02-24T13:29:57.402Z,14.02
2023-02-24T13:32:31.676Z,13.93
2023-02-24T13:35:03.336Z,13.86
2023-02-24T13:37:36.432Z,13.85
2023-02-24T13:40:28.126Z,13.92
2023-02-24T13:43:04.882Z,13.92
2023-02-24T13:45:37.190Z,13.86
2023-02-24T13:48:26.722Z,13.79
2023-02-24T13:51:47.364Z,13.66
2023-02-24T13:54:33.149Z,13.54
2023-02-24T13:57:29.371Z,13.44
2023-02-24T14:00:11.376Z,13.31
2023-02-24T14:02:45.105Z,13.28
2023-02-24T14:05:23.031Z,13.24
2023-02-24T14:07:53.179Z,13.22
2023-02-24T14:10:25.075Z,13.19
2023-02-24T14:13:06.736Z,13.16
2023-02-24T14:15:36.143Z,13.13
2023-02-24T14:18:07.298Z,13.05
2023-02-24T14:20:37.867Z,12.92
2023-02-24T14:23:23.226Z,12.82
2023-02-24T14:25:57.849Z,12.78
2023-02-24T14:28:31.142Z,12.83
2023-02-24T14:31:03.693Z,12.93
2023-02-24T14:33:38.543Z,12.98
2023-02-24T14:36:09.209Z,13.05
2023-02-24T14:38:39.903Z,13.10
2023-02-24T14:41:20.175Z,13.08
2023-02-24T14:43:48.741Z,13.05
2023-02-24T14:46:17.409Z,13.04
2023-02-24T14:48:52.738Z,13.01
2023-02-24T14:51:29.369Z,12.95
2023-02-24T14:54:02.850Z,12.88
2023-02-24T14:56:35.180Z,12.76
2023-02-24T14:59:09.478Z,12.66
2023-02-24T15:01:41.118Z,12.56
2023-02-24T15:04:22.163Z,12.44
2023-02-24T15:06:50.534Z,12.37
2023-02-24T15:09:23.650Z,12.26
2023-02-24T15:11:55.565Z,12.19
2023-02-24T15:14:27.613Z,12.12
2023-02-24T15:17:00.336Z,12.05
2023-02-24T15:19:37.228Z,12.01
2023-02-24T15:22:19.140Z,12.00
2023-02-24T15:24:47.404Z,11.98
2023-02-24T15:27:26.737Z,11.98
2023-02-24T15:30:02.645Z,12.00
2023-02-24T15:32:34.638Z,12.01
2023-02-24T15:35:05.757Z,12.02
2023-02-24T15:37:42.483Z,12.03
2023-02-24T15:40:21.786Z,12.06
2023-02-24T15:42:55.847Z,12.05
2023-02-24T15:45:33.175Z,12.03
2023-02-24T15:48:03.128Z,11.99
2023-02-24T15:50:33.561Z,11.95
2023-02-24T15:53:05.429Z,11.91
2023-02-24T15:55:33.731Z,11.90
2023-02-24T15:58:04.428Z,11.87
2023-02-24T16:00:33.008Z,11.85
2023-02-24T16:03:01.517Z,11.80
2023-02-24T16:05:30.231Z,11.72
2023-02-24T16:07:59.816Z,11.63
2023-02-24T16:10:31.094Z,11.56
2023-02-24T16:13:01.791Z,11.46
2023-02-24T16:15:35.581Z,11.35
2023-02-24T16:18:04.976Z,11.26
2023-02-24T16:20:35.743Z,11.18
2023-02-24T16:23:06.939Z,11.08
2023-02-24T16:25:44.607Z,10.99
2023-02-24T16:28:15.834Z,10.90
2023-02-24T16:30:45.264Z,10.83
2023-02-24T16:33:15.206Z,10.75
2023-02-24T16:35:44.578Z,10.67
2023-02-24T16:38:15.297Z,10.61
2023-02-24T16:40:46.207Z,10.56
2023-02-24T16:43:15.253Z,10.49
2023-02-24T16:45:46.015Z,10.42
2023-02-24T16:48:20.897Z,10.35
2023-02-24T16:50:49.520Z,10.30
2023-02-24T16:53:24.033Z,10.24
2023-02-24T16:55:52.940Z,10.17
2023-02-24T16:58:23.242Z,10.11
2023-02-24T17:00:56.158Z,10.05
2023-02-24T17:03:28.132Z,9.99
2023-02-24T17:05:57.745Z,9.95
2023-02-24T17:08:27.683Z,9.93
2023-02-24T17:10:57.757Z,9.88
2023-02-24T17:13:27.646Z,9.84
2023-02-24T17:15:57.243Z,9.79
2023-02-24T17:18:26.991Z,9.77
2023-02-24T17:20:55.940Z,9.75
2023-02-24T17:23:24.375Z,9.71
2023-02-24T17:25:57.928Z,9.70
2023-02-24T17:28:26.793Z,9.68
2023-02-24T17:30:55.372Z,9.68
2023-02-24T17:33:24.118Z,9.66
2023-02-24T17:35:52.665Z,9.65
2023-02-24T17:38:24.120Z,9.63
2023-02-24T17:40:55.606Z,9.62
2023-02-24T17:43:24.133Z,9.58
2023-02-24T17:45:53.650Z,9.57
2023-02-24T17:48:23.048Z,9.58
2023-02-24T17:50:51.960Z,9.57
2023-02-24T17:53:20.245Z,9.55
2023-02-24T17:56:01.972Z,9.53
2023-02-24T17:58:33.270Z,9.46
2023-02-24T18:01:02.965Z,9.37
2023-02-24T18:03:31.901Z,9.30
2023-02-24T18:06:01.552Z,9.21
2023-02-24T18:08:30.704Z,9.10
2023-02-24T18:11:00.867Z,9.00
2023-02-24T18:13:32.355Z,8.92
2023-02-24T18:16:01.506Z,8.87
2023-02-24T18:18:30.296Z,8.80
2023-02-24T18:21:02.809Z,8.72
2023-02-24T18:23:31.963Z,8.63
2023-02-24T18:26:03.678Z,8.56
2023-02-24T18:28:34.672Z,8.49
2023-02-24T18:31:10.370Z,8.44
2023-02-24T18:33:39.290Z,8.38
2023-02-24T18:36:09.078Z,8.30
2023-02-24T18:38:37.773Z,8.26
2023-02-24T18:41:08.024Z,8.23
2023-02-24T18:43:37.937Z,8.20
2023-02-24T18:46:09.371Z,8.16
2023-02-24T18:48:40.067Z,8.14
2023-02-24T18:51:09.027Z,8.13
2023-02-24T18:53:38.234Z,8.10
2023-02-24T18:56:09.203Z,8.08
2023-02-24T18:58:40.737Z,8.07
2023-02-24T19:01:14.793Z,8.04
2023-02-24T19:03:43.911Z,7.99
2023-02-24T19:06:13.132Z,7.94
2023-02-24T19:08:42.580Z,7.91
2023-02-24T19:11:13.270Z,7.88
2023-02-24T19:13:43.748Z,7.84
2023-02-24T19:16:12.642Z,7.81
2023-02-24T19:18:41.004Z,7.75
2023-02-24T19:21:11.079Z,7.71
2023-02-24T19:23:39.595Z,7.68
2023-02-24T19:26:15.314Z,7.66
2023-02-24T19:28:45.064Z,7.62
2023-02-24T19:31:16.237Z,7.58
2023-02-24T19:33:45.064Z,7.55
2023-02-24T19:36:13.713Z,7.50
2023-02-24T19:38:43.038Z,7.46
2023-02-24T19:41:11.745Z,7.40
2023-02-24T19:43:41.691Z,7.35
2023-02-24T19:46:14.584Z,7.32
2023-02-24T19:48:43.330Z,7.28
2023-02-24T19:51:14.549Z,7.25
2023-02-24T19:53:43.124Z,7.24
2023-02-24T19:56:11.806Z,7.24
2023-02-24T19:58:41.938Z,7.23
2023-02-24T20:01:14.721Z,7.23
2023-02-24T20:03:44.337Z,7.21
2023-02-24T20:06:18.949Z,7.21
2023-02-24T20:08:47.072Z,7.19
2023-02-24T20:11:15.524Z,7.19
2023-02-24T20:13:44.240Z,7.20
2023-02-24T20:16:16.745Z,7.24
2023-02-24T20:18:46.082Z,7.24
2023-02-24T20:21:16.008Z,7.26
2023-02-24T20:23:44.853Z,7.25
2023-02-24T20:26:16.128Z,7.26
2023-02-24T20:28:45.409Z,7.26
2023-02-24T20:31:18.517Z,7.26
2023-02-24T20:33:48.804Z,7.27
2023-02-24T20:36:21.003Z,7.27
2023-02-24T20:38:50.629Z,7.27
2023-02-24T20:41:19.981Z,7.27
2023-02-24T20:43:48.915Z,7.26
2023-02-24T20:46:24.070Z,7.26
2023-02-24T20:48:53.435Z,7.26
2023-02-24T20:51:23.024Z,7.26
2023-02-24T20:53:57.664Z,7.27
2023-02-24T20:56:27.990Z,7.25
2023-02-24T20:59:00.919Z,7.26
2023-02-24T21:01:32.242Z,7.26
2023-02-24T21:04:01.457Z,7.26
2023-02-24T21:06:30.880Z,7.24
2023-02-24T21:08:59.717Z,7.21
2023-02-24T21:11:30.352Z,7.20
2023-02-24T21:14:00.019Z,7.18
2023-02-24T21:16:30.352Z,7.18
2023-02-24T21:18:59.060Z,7.16
2023-02-24T21:21:27.683Z,7.15
2023-02-24T21:23:56.805Z,7.14
2023-02-24T21:26:27.017Z,7.13
2023-02-24T21:28:57.897Z,7.11
2023-02-24T21:31:26.968Z,7.08
2023-02-24T21:33:57.292Z,7.07
2023-02-24T21:36:27.913Z,7.06
2023-02-24T21:38:56.754Z,7.05
2023-02-24T21:41:25.584Z,7.04
2023-02-24T21:43:55.760Z,7.04
2023-02-24T21:46:28.123Z,7.04
2023-02-24T21:48:59.217Z,7.02
2023-02-24T21:51:29.385Z,7.00
2023-02-24T21:53:58.540Z,6.99
2023-02-24T21:56:29.582Z,6.98
2023-02-24T21:59:00.006Z,6.97
2023-02-24T22:01:31.811Z,6.96
2023-02-24T22:04:03.987Z,6.93
2023-02-24T22:06:34.373Z,6.91
2023-02-24T22:09:04.441Z,6.91
2023-02-24T22:11:35.704Z,6.89
2023-02-24T22:14:04.688Z,6.86
2023-02-24T22:16:33.267Z,6.82
2023-02-24T22:19:03.218Z,6.73
2023-02-24T22:21:31.757Z,6.67
2023-02-24T22:24:03.212Z,6.61
2023-02-24T22:26:32.617Z,6.53
2023-02-24T22:29:02.187Z,6.47
2023-02-24T22:31:34.284Z,6.40
2023-02-24T22:34:05.339Z,6.36
2023-02-24T22:36:36.711Z,6.31
2023-02-24T22:39:06.701Z,6.32
2023-02-24T22:41:36.376Z,6.34
2023-02-24T22:44:06.419Z,6.37
2023-02-24T22:46:37.410Z,6.41
2023-02-24T22:49:07.831Z,6.44
2023-02-24T22:51:36.536Z,6.45
2023-02-24T22:54:05.910Z,6.47
2023-02-24T22:56:34.872Z,6.49
2023-02-24T22:59:03.364Z,6.51
2023-02-24T23:01:33.970Z,6.51
2023-02-24T23:04:03.345Z,6.51
2023-02-24T23:06:33.159Z,6.48
2023-02-24T23:09:03.158Z,6.44
2023-02-24T23:11:33.495Z,6.38
2023-02-24T23:14:05.886Z,6.31
2023-02-24T23:16:36.067Z,6.23
2023-02-24T23:19:07.283Z,6.13
2023-02-24T23:21:39.096Z,6.04
2023-02-24T23:24:10.806Z,5.96
2023-02-24T23:26:41.914Z,5.88
2023-02-24T23:29:11.547Z,5.83
2023-02-24T23:31:40.919Z,5.77
2023-02-24T23:34:09.995Z,5.70
2023-02-24T23:36:43.491Z,5.64
2023-02-24T23:39:14.430Z,5.58
2023-02-24T23:41:45.938Z,5.54
2023-02-24T23:44:14.274Z,5.54
2023-02-24T23:46:42.945Z,5.56
2023-02-24T23:49:11.454Z,5.60
2023-02-24T23:51:48.421Z,5.63
2023-02-24T23:54:17.836Z,5.68
2023-02-24T23:56:46.710Z,5.66
2023-02-24T23:59:15.939Z,5.62
